Volk Field
KVOK : now visible

Airfield :











YOU CAN JOIN US ON...

 
LOGIN :

Register | Disclaimer

   EN    FR    IT 

 









Legend :    VFR   Marginal VFR   IFR   Intensive IFR   Very Intensive IFR
Visi :
Ceiling :
>= 8 km
>= 3000ft
5 to 8 km
1000 to 3000 ft
1500m to 5 km
500 to 1000 ft
800 to 1500m
200 to 500 ft
< 800m
< 200 ft
Symbols :   Thunderstorms  Fog  Heavy snow  Heavy precipitations  Wind > 20 kt






- Airport Elevation : 912 ft


KVOK - Volk Field

CURRENT METAR :
  • 280056Z AUTO 00000KT 10SM CLR 23/23 A2990 RMK AO2 SLP124 T02300230

EXPIRED METARs :
  • 272356Z AUTO 31007KT 10SM CLR 26/21 A2988 RMK AO2 SLP116 60000 T02550211 10290 20255 53001
  • 272256Z AUTO 23004KT 10SM CLR 27/19 A2988 RMK AO2 SLP116 T02730191

TAF AMD TAF KVOK
Valid from the 27 at 20:00 until the 28 at 23:00 UTC


272056Z 2720/2823 19009KT 9000 -SHRA BKN030 QNH2985INS
TEMPO 2721/2801 19020G25KT 8000 -TSRA BKN030CB OVC045
BECMG 2817/2818 VRB06KT 9999 NSW SCT020 QNH2988INS TX28/2720Z TN18/2817Z LAST NO AMDS AFT 2721 NEXT 2809
KZAU FIR / North America



MET'MAP, your aeronautical weather chart ! - Copyright ORBIFLY December 2007 - Disclaimer

ORBIFLY MET'MAP TEAM :

Programming & Development : Alexandra Zaïnal
Concept & original design : Baudouin d'Aumeries
Assistance for programming : Marc-Olivier Méhu
Technical & hardware support : Manuel Goepfert

Contact : metmap@orbifly.com




SOURCES & CREDITS :

   NOAA       Earth
Advisory